createdAt,value
2023-05-06T00:01:02.921Z,99.90
2023-05-06T00:03:06.296Z,99.90
2023-05-06T00:05:09.850Z,99.90
2023-05-06T00:07:13.002Z,99.90
2023-05-06T00:09:16.102Z,99.90
2023-05-06T00:11:18.998Z,99.90
2023-05-06T00:13:23.307Z,99.90
2023-05-06T00:15:26.739Z,99.90
2023-05-06T00:17:29.629Z,99.90
2023-05-06T00:19:32.590Z,99.90
2023-05-06T00:21:35.400Z,99.90
2023-05-06T00:23:38.268Z,99.90
2023-05-06T00:25:41.181Z,99.90
2023-05-06T00:27:44.002Z,99.90
2023-05-06T00:29:48.163Z,99.90
2023-05-06T00:31:51.102Z,99.90
2023-05-06T00:33:53.997Z,99.90
2023-05-06T00:35:56.794Z,99.90
2023-05-06T00:38:08.605Z,99.90
2023-05-06T00:40:12.452Z,99.90
2023-05-06T00:42:15.230Z,99.90
2023-05-06T00:44:17.995Z,99.90
2023-05-06T00:46:22.268Z,99.90
2023-05-06T00:48:25.208Z,99.90
2023-05-06T00:50:29.696Z,99.90
2023-05-06T00:52:32.796Z,99.90
2023-05-06T00:54:36.209Z,99.90
2023-05-06T00:56:39.390Z,99.90
2023-05-06T00:58:42.302Z,99.90
2023-05-06T01:00:45.195Z,99.90
2023-05-06T01:02:49.931Z,99.90
2023-05-06T01:04:55.389Z,99.90
2023-05-06T01:07:06.342Z,99.90
2023-05-06T01:09:21.677Z,99.90
2023-05-06T01:11:35.256Z,99.90
2023-05-06T01:13:46.290Z,99.90
2023-05-06T01:15:53.821Z,99.90
2023-05-06T01:18:00.029Z,99.90
2023-05-06T01:20:10.636Z,99.90
2023-05-06T01:22:14.664Z,99.90
2023-05-06T01:24:18.977Z,99.90
2023-05-06T01:26:22.241Z,99.90
2023-05-06T01:28:25.073Z,99.90
2023-05-06T01:30:36.996Z,99.90
2023-05-06T01:32:47.731Z,99.90
2023-05-06T01:34:57.653Z,99.90
2023-05-06T01:37:10.032Z,99.90
2023-05-06T01:39:19.514Z,99.90
2023-05-06T01:41:23.870Z,99.90
2023-05-06T01:43:30.514Z,99.90
2023-05-06T01:45:36.653Z,99.90
2023-05-06T01:47:41.772Z,99.90
2023-05-06T01:49:45.047Z,99.90
2023-05-06T01:51:51.274Z,99.90
2023-05-06T01:53:55.907Z,99.90
2023-05-06T01:56:00.250Z,99.90
2023-05-06T01:58:03.175Z,99.90
2023-05-06T02:00:07.452Z,99.90
2023-05-06T02:02:10.423Z,99.90
2023-05-06T02:04:13.418Z,99.90
2023-05-06T02:06:16.386Z,99.90
2023-05-06T02:08:19.290Z,99.90
2023-05-06T02:10:22.148Z,99.90
2023-05-06T02:12:26.565Z,99.90
2023-05-06T02:14:29.569Z,99.90
2023-05-06T02:16:32.786Z,99.90
2023-05-06T02:18:36.133Z,99.90
2023-05-06T02:20:39.113Z,99.90
2023-05-06T02:22:42.077Z,99.90
2023-05-06T02:24:44.950Z,99.90
2023-05-06T02:26:47.782Z,99.90
2023-05-06T02:28:52.130Z,99.90
2023-05-06T02:30:56.994Z,99.90
2023-05-06T02:32:59.960Z,99.90
2023-05-06T02:35:03.052Z,99.90
2023-05-06T02:37:06.100Z,99.90
2023-05-06T02:39:08.912Z,99.90
2023-05-06T02:41:11.796Z,99.90
2023-05-06T02:43:14.810Z,99.90
2023-05-06T02:45:19.379Z,99.90
2023-05-06T02:47:25.058Z,99.90
2023-05-06T02:49:28.324Z,99.90
2023-05-06T02:51:31.249Z,99.90
2023-05-06T02:53:34.235Z,99.90
2023-05-06T02:55:37.128Z,99.90
2023-05-06T02:57:40.101Z,99.90
2023-05-06T02:59:42.998Z,99.90
2023-05-06T03:01:47.163Z,99.90
2023-05-06T03:03:50.663Z,99.90
2023-05-06T03:05:53.722Z,99.90
2023-05-06T03:07:56.720Z,99.90
2023-05-06T03:09:59.839Z,99.90
2023-05-06T03:12:03.048Z,99.90
2023-05-06T03:14:05.937Z,99.90
2023-05-06T03:16:14.087Z,99.90
2023-05-06T03:18:18.279Z,99.90
2023-05-06T03:20:21.953Z,99.90
2023-05-06T03:22:24.780Z,99.90
2023-05-06T03:24:27.582Z,99.90
2023-05-06T03:26:30.506Z,99.90
2023-05-06T03:28:33.428Z,99.90
2023-05-06T03:30:36.221Z,99.90
2023-05-06T03:32:39.530Z,99.90
2023-05-06T03:34:43.731Z,99.90
2023-05-06T03:36:46.998Z,99.90
2023-05-06T03:38:49.948Z,99.90
2023-05-06T03:40:53.807Z,99.90
2023-05-06T03:42:56.787Z,99.90
2023-05-06T03:44:59.828Z,99.90
2023-05-06T03:47:02.741Z,99.90
2023-05-06T03:49:05.847Z,99.90
2023-05-06T03:51:10.285Z,99.90
2023-05-06T03:53:13.321Z,99.90
2023-05-06T03:55:16.471Z,99.90
2023-05-06T03:57:19.373Z,99.90
2023-05-06T03:59:22.402Z,99.90
2023-05-06T04:01:25.251Z,99.90
2023-05-06T04:03:28.344Z,99.90
2023-05-06T04:05:31.338Z,99.90
2023-05-06T04:07:35.632Z,99.90
2023-05-06T04:09:38.564Z,99.90
2023-05-06T04:11:43.649Z,99.90
2023-05-06T04:13:46.927Z,99.90
2023-05-06T04:15:50.607Z,99.90
2023-05-06T04:17:53.496Z,99.90
2023-05-06T04:19:57.647Z,99.90
2023-05-06T04:22:00.716Z,99.90
2023-05-06T04:24:05.396Z,99.90
2023-05-06T04:26:14.884Z,99.90
2023-05-06T04:28:19.352Z,99.90
2023-05-06T04:30:22.553Z,99.90
2023-05-06T04:32:26.035Z,99.90
2023-05-06T04:34:28.932Z,99.90
2023-05-06T04:36:32.002Z,99.90
2023-05-06T04:38:35.747Z,99.90
2023-05-06T04:40:41.944Z,99.90
2023-05-06T04:42:45.013Z,99.90
2023-05-06T04:44:48.721Z,99.90
2023-05-06T04:46:51.489Z,99.90
2023-05-06T04:48:54.262Z,99.90
2023-05-06T04:50:57.229Z,99.90
2023-05-06T04:53:00.062Z,99.90
2023-05-06T04:55:03.197Z,99.90
2023-05-06T04:57:07.538Z,99.90
2023-05-06T04:59:10.454Z,99.90
2023-05-06T05:01:13.389Z,99.90
2023-05-06T05:03:16.572Z,99.90
2023-05-06T05:05:19.951Z,99.90
2023-05-06T05:07:22.713Z,99.90
2023-05-06T05:09:25.750Z,99.90
2023-05-06T05:11:28.543Z,99.90
2023-05-06T05:13:32.798Z,99.90
2023-05-06T05:15:35.658Z,99.90
2023-05-06T05:17:38.790Z,99.90
2023-05-06T05:19:41.971Z,99.90
2023-05-06T05:21:44.772Z,99.90
2023-05-06T05:23:47.556Z,99.90
2023-05-06T05:25:50.335Z,99.90
2023-05-06T05:27:53.122Z,99.90
2023-05-06T05:29:57.269Z,99.90
2023-05-06T05:32:00.533Z,99.90
2023-05-06T05:34:03.484Z,99.90
2023-05-06T05:36:06.671Z,99.90
2023-05-06T05:38:12.232Z,99.90
2023-05-06T05:40:15.582Z,99.90
2023-05-06T05:42:18.356Z,99.90
2023-05-06T05:44:21.374Z,99.90
2023-05-06T05:46:25.651Z,99.90
2023-05-06T05:48:28.692Z,99.90
2023-05-06T05:50:31.518Z,99.90
2023-05-06T05:52:36.749Z,99.90
2023-05-06T05:54:39.628Z,99.90
2023-05-06T05:56:42.450Z,99.90
2023-05-06T05:58:47.211Z,99.90
2023-05-06T06:00:51.965Z,99.90
2023-05-06T06:02:56.204Z,99.90
2023-05-06T06:04:59.156Z,99.90
2023-05-06T06:07:02.575Z,99.90
2023-05-06T06:09:05.477Z,99.90
2023-05-06T06:11:08.385Z,99.90
2023-05-06T06:13:11.301Z,99.90
2023-05-06T06:15:14.067Z,99.90
2023-05-06T06:17:17.300Z,99.90
2023-05-06T06:19:21.509Z,99.90
2023-05-06T06:21:24.346Z,99.90
2023-05-06T06:23:29.876Z,99.90
2023-05-06T06:25:32.903Z,99.90
2023-05-06T06:27:38.847Z,99.90
2023-05-06T06:29:41.688Z,99.90
2023-05-06T06:31:44.511Z,99.90
2023-05-06T06:33:47.378Z,99.90
2023-05-06T06:35:51.497Z,99.90
2023-05-06T06:37:54.418Z,99.90
2023-05-06T06:39:57.252Z,99.90
2023-05-06T06:42:00.267Z,99.90
2023-05-06T06:44:03.184Z,99.90
2023-05-06T06:46:06.024Z,99.90
2023-05-06T06:48:09.056Z,99.90
2023-05-06T06:50:12.601Z,99.90
2023-05-06T06:52:16.967Z,99.90
2023-05-06T06:54:19.830Z,99.90
2023-05-06T06:56:23.096Z,99.90
2023-05-06T06:58:27.923Z,99.90
2023-05-06T07:00:30.849Z,99.90
2023-05-06T07:02:33.713Z,99.90
2023-05-06T07:04:37.052Z,99.90
2023-05-06T07:06:39.941Z,99.90
2023-05-06T07:08:44.315Z,99.90
2023-05-06T07:10:47.062Z,99.90
2023-05-06T07:12:49.805Z,99.90
2023-05-06T07:14:53.846Z,99.90
2023-05-06T07:16:57.076Z,99.90
2023-05-06T07:19:00.894Z,99.90
2023-05-06T07:21:04.245Z,99.90
2023-05-06T07:23:07.260Z,99.90
2023-05-06T07:25:11.733Z,99.90
2023-05-06T07:27:14.874Z,99.90
2023-05-06T07:29:17.967Z,99.90
2023-05-06T07:31:21.600Z,99.90
2023-05-06T07:33:24.386Z,99.90
2023-05-06T07:35:27.429Z,99.90
2023-05-06T07:37:30.576Z,99.90
2023-05-06T07:39:33.418Z,99.90
2023-05-06T07:41:38.026Z,99.90
2023-05-06T07:43:41.110Z,99.90
2023-05-06T07:45:44.008Z,99.90
2023-05-06T07:47:47.192Z,99.90
2023-05-06T07:49:54.314Z,99.90
2023-05-06T07:51:57.341Z,99.90
2023-05-06T07:54:03.566Z,99.90
2023-05-06T07:56:09.340Z,99.90
2023-05-06T07:58:14.841Z,99.90
2023-05-06T08:00:18.407Z,99.90
2023-05-06T08:02:21.803Z,99.90
2023-05-06T08:04:33.537Z,99.90
2023-05-06T08:06:42.039Z,99.90
2023-05-06T08:08:46.420Z,99.90
2023-05-06T08:10:50.450Z,99.90
2023-05-06T08:13:02.366Z,99.90
2023-05-06T08:15:08.173Z,99.90
2023-05-06T08:17:11.260Z,99.90
2023-05-06T08:19:15.188Z,99.90
2023-05-06T08:21:18.344Z,99.90
2023-05-06T08:23:34.549Z,99.90
2023-05-06T08:25:40.377Z,99.90
2023-05-06T08:27:46.304Z,99.90
2023-05-06T08:29:49.143Z,99.90
2023-05-06T08:31:59.674Z,99.90
2023-05-06T08:34:10.272Z,99.90
2023-05-06T08:36:13.113Z,99.90
2023-05-06T08:38:33.455Z,99.90
2023-05-06T08:40:43.522Z,99.90
2023-05-06T08:43:02.472Z,99.90
2023-05-06T08:45:06.462Z,99.90
2023-05-06T08:47:13.670Z,99.90
2023-05-06T08:49:19.360Z,99.90
2023-05-06T08:51:35.488Z,99.90
2023-05-06T08:53:42.289Z,99.90
2023-05-06T08:55:46.371Z,99.90
2023-05-06T08:57:51.813Z,99.90
2023-05-06T09:00:00.651Z,99.90
2023-05-06T09:02:04.315Z,99.90
2023-05-06T09:04:09.568Z,99.90
2023-05-06T09:06:17.983Z,99.90
2023-05-06T09:08:21.006Z,99.90
2023-05-06T09:10:27.659Z,99.90
2023-05-06T09:13:00.420Z,99.90
2023-05-06T09:15:09.155Z,99.90
2023-05-06T09:17:24.109Z,99.90
2023-05-06T09:19:52.936Z,99.90
2023-05-06T09:22:01.947Z,99.90
2023-05-06T09:24:06.358Z,99.90
2023-05-06T09:26:12.604Z,99.90
2023-05-06T09:28:17.443Z,99.90
2023-05-06T09:30:20.458Z,99.90
2023-05-06T09:32:27.248Z,99.90
2023-05-06T09:34:31.547Z,99.90
2023-05-06T09:36:36.373Z,99.90
2023-05-06T09:38:39.149Z,99.90
2023-05-06T09:40:48.052Z,99.90
2023-05-06T09:42:51.554Z,99.90
2023-05-06T09:44:59.871Z,99.90
2023-05-06T09:47:07.123Z,99.90
2023-05-06T09:49:10.206Z,99.90
2023-05-06T09:51:20.343Z,99.90
2023-05-06T09:53:29.184Z,99.90
2023-05-06T09:55:46.163Z,99.90
2023-05-06T09:58:08.465Z,99.90
2023-05-06T10:00:17.415Z,99.90
2023-05-06T10:02:26.254Z,99.90
2023-05-06T10:04:38.989Z,99.90
2023-05-06T10:06:54.358Z,99.40
2023-05-06T10:08:58.963Z,99.10
2023-05-06T10:11:04.057Z,99.40
2023-05-06T10:13:06.932Z,99.60
2023-05-06T10:15:11.092Z,99.40
2023-05-06T10:17:14.863Z,98.80
2023-05-06T10:19:24.031Z,99.60
2023-05-06T10:21:32.228Z,99.00
2023-05-06T10:23:44.061Z,99.10
2023-05-06T10:25:49.209Z,98.70
2023-05-06T10:27:53.985Z,98.70
2023-05-06T10:30:02.497Z,98.80
2023-05-06T10:32:10.816Z,99.30
2023-05-06T10:34:18.426Z,99.70
2023-05-06T10:36:23.540Z,99.80
2023-05-06T10:38:31.244Z,99.90
2023-05-06T10:40:36.451Z,99.90
2023-05-06T10:42:39.457Z,99.90
2023-05-06T10:44:58.395Z,99.90
2023-05-06T10:47:03.271Z,99.60
2023-05-06T10:49:20.343Z,99.40
2023-05-06T10:51:24.893Z,99.90
2023-05-06T10:54:03.110Z,99.90
2023-05-06T10:56:09.936Z,99.40
2023-05-06T10:58:17.207Z,99.90
2023-05-06T11:00:20.167Z,99.70
2023-05-06T11:02:24.002Z,99.70
2023-05-06T11:04:26.988Z,99.60
2023-05-06T11:06:34.438Z,99.90
2023-05-06T11:08:37.628Z,99.90
2023-05-06T11:10:40.651Z,99.90
2023-05-06T11:12:50.575Z,99.90
2023-05-06T11:14:53.343Z,99.90
2023-05-06T11:16:57.806Z,99.90
2023-05-06T11:19:00.928Z,99.90
2023-05-06T11:21:40.756Z,99.90
2023-05-06T11:24:12.327Z,99.90
2023-05-06T11:26:15.545Z,99.90
2023-05-06T11:28:19.692Z,99.90
2023-05-06T11:30:22.732Z,99.90
2023-05-06T11:32:37.498Z,99.90
2023-05-06T11:34:45.801Z,99.90
2023-05-06T11:37:02.067Z,99.90
2023-05-06T11:39:08.195Z,99.90
2023-05-06T11:41:17.362Z,99.90
2023-05-06T11:43:33.117Z,99.60
2023-05-06T11:45:49.819Z,99.80
2023-05-06T11:48:02.802Z,99.70
2023-05-06T11:50:18.963Z,99.50
2023-05-06T11:52:24.961Z,99.20
2023-05-06T11:54:30.221Z,98.40
2023-05-06T11:57:01.687Z,98.70
2023-05-06T11:59:48.804Z,98.00
2023-05-06T12:01:52.214Z,97.40
2023-05-06T12:04:01.220Z,97.20
2023-05-06T12:06:16.868Z,96.90
2023-05-06T12:08:28.044Z,97.00
2023-05-06T12:10:41.036Z,96.50
2023-05-06T12:12:49.984Z,96.00
2023-05-06T12:14:54.876Z,95.90
2023-05-06T12:16:58.213Z,96.00
2023-05-06T12:19:01.501Z,96.10
2023-05-06T12:21:04.608Z,95.90
2023-05-06T12:23:07.904Z,95.90
2023-05-06T12:25:15.310Z,95.90
2023-05-06T12:27:33.175Z,95.50
2023-05-06T12:29:36.257Z,95.90
2023-05-06T12:31:40.569Z,95.40
2023-05-06T12:33:48.903Z,95.80
2023-05-06T12:35:52.750Z,95.20
2023-05-06T12:37:55.961Z,95.40
2023-05-06T12:39:59.667Z,95.20
2023-05-06T12:42:02.717Z,94.80
2023-05-06T12:44:33.368Z,94.60
2023-05-06T12:46:36.169Z,95.00
2023-05-06T12:48:40.547Z,94.40
2023-05-06T12:50:44.639Z,94.50
2023-05-06T12:52:47.623Z,94.20
2023-05-06T12:54:51.731Z,93.60
2023-05-06T12:56:54.539Z,93.30
2023-05-06T12:58:58.935Z,93.40
2023-05-06T13:01:01.956Z,93.40
2023-05-06T13:03:05.118Z,93.50
2023-05-06T13:05:10.262Z,93.00
2023-05-06T13:07:13.530Z,92.80
2023-05-06T13:09:16.711Z,92.70
2023-05-06T13:11:19.480Z,92.50
2023-05-06T13:13:22.836Z,93.20
2023-05-06T13:15:26.910Z,93.30
2023-05-06T13:17:29.892Z,93.40
2023-05-06T13:19:33.594Z,93.20
2023-05-06T13:21:38.861Z,92.10
2023-05-06T13:23:46.756Z,92.70
2023-05-06T13:26:03.334Z,92.80
2023-05-06T13:28:07.560Z,92.70
2023-05-06T13:30:11.155Z,92.50
2023-05-06T13:32:14.241Z,93.00
2023-05-06T13:34:17.229Z,93.20
2023-05-06T13:36:20.117Z,92.80
2023-05-06T13:38:24.430Z,93.00
2023-05-06T13:40:27.360Z,93.00
2023-05-06T13:42:30.167Z,92.90
2023-05-06T13:44:33.027Z,93.20
2023-05-06T13:46:35.997Z,92.90
2023-05-06T13:48:39.042Z,93.10
2023-05-06T13:50:42.532Z,92.40
2023-05-06T13:52:45.431Z,92.70
2023-05-06T13:54:49.576Z,92.60
2023-05-06T13:56:52.453Z,92.50
2023-05-06T13:58:55.361Z,92.90
2023-05-06T14:00:58.291Z,93.80
2023-05-06T14:03:01.657Z,93.90
2023-05-06T14:05:05.801Z,93.50
2023-05-06T14:07:08.786Z,93.60
2023-05-06T14:09:13.004Z,93.80
2023-05-06T14:11:17.411Z,93.50
2023-05-06T14:13:20.445Z,93.10
2023-05-06T14:15:24.486Z,92.20
2023-05-06T14:17:27.861Z,92.00
2023-05-06T14:19:30.915Z,91.70
2023-05-06T14:21:34.948Z,91.90
2023-05-06T14:23:37.874Z,92.10
2023-05-06T14:25:40.729Z,91.80
2023-05-06T14:27:45.420Z,92.40
2023-05-06T14:29:48.309Z,92.10
2023-05-06T14:31:53.126Z,92.10
2023-05-06T14:33:56.169Z,91.80
2023-05-06T14:36:00.013Z,92.00
2023-05-06T14:38:03.132Z,91.90
2023-05-06T14:40:07.669Z,91.90
2023-05-06T14:42:10.873Z,92.10
2023-05-06T14:44:15.220Z,91.70
2023-05-06T14:46:18.266Z,91.20
2023-05-06T14:48:21.055Z,91.40
2023-05-06T14:50:23.975Z,91.50
2023-05-06T14:52:27.028Z,90.90
2023-05-06T14:54:30.159Z,90.80
2023-05-06T14:56:32.951Z,90.30
2023-05-06T14:58:35.758Z,90.10
2023-05-06T15:00:39.915Z,90.60
2023-05-06T15:02:42.786Z,90.60
2023-05-06T15:04:45.861Z,91.30
2023-05-06T15:06:48.652Z,91.40
2023-05-06T15:08:51.401Z,91.50
2023-05-06T15:10:54.831Z,91.70
2023-05-06T15:12:57.853Z,91.80
2023-05-06T15:15:00.679Z,91.70
2023-05-06T15:17:04.919Z,91.90
2023-05-06T15:19:07.689Z,92.00
2023-05-06T15:21:11.243Z,91.90
2023-05-06T15:23:14.134Z,92.00
2023-05-06T15:25:30.393Z,92.50
2023-05-06T15:27:37.606Z,92.20
2023-05-06T15:29:40.470Z,92.70
2023-05-06T15:31:45.427Z,93.20
2023-05-06T15:33:49.592Z,93.00
2023-05-06T15:35:55.110Z,93.20
2023-05-06T15:37:58.825Z,93.10
2023-05-06T15:40:05.207Z,92.90
2023-05-06T15:42:08.464Z,92.90
2023-05-06T15:44:12.424Z,93.10
2023-05-06T15:46:15.190Z,92.60
2023-05-06T15:48:19.418Z,92.70
2023-05-06T15:50:32.864Z,93.20
2023-05-06T15:52:36.490Z,93.80
2023-05-06T15:54:40.913Z,93.50
2023-05-06T15:56:45.024Z,94.20
2023-05-06T15:58:47.813Z,94.50
2023-05-06T16:00:50.573Z,94.30
2023-05-06T16:02:53.482Z,94.70
2023-05-06T16:04:56.565Z,94.60
2023-05-06T16:07:01.099Z,94.70
2023-05-06T16:09:08.403Z,95.00
2023-05-06T16:11:11.115Z,95.20
2023-05-06T16:13:13.993Z,94.90
2023-05-06T16:15:17.005Z,94.80
2023-05-06T16:17:20.160Z,95.00
2023-05-06T16:19:23.065Z,95.00
2023-05-06T16:21:27.000Z,95.50
2023-05-06T16:23:31.213Z,95.60
2023-05-06T16:25:34.422Z,95.70
2023-05-06T16:27:37.222Z,96.20
2023-05-06T16:29:40.359Z,96.40
2023-05-06T16:31:43.185Z,96.40
2023-05-06T16:33:46.101Z,96.50
2023-05-06T16:35:48.992Z,96.60
2023-05-06T16:37:51.760Z,96.80
2023-05-06T16:39:56.000Z,96.50
2023-05-06T16:41:58.748Z,96.40
2023-05-06T16:44:01.528Z,96.30
2023-05-06T16:46:04.355Z,96.50
2023-05-06T16:48:07.323Z,96.50
2023-05-06T16:50:11.014Z,96.60
2023-05-06T16:52:13.935Z,96.80
2023-05-06T16:54:16.811Z,96.50
2023-05-06T16:56:21.552Z,96.60
2023-05-06T16:58:25.145Z,96.40
2023-05-06T17:00:28.297Z,96.30
2023-05-06T17:02:31.172Z,96.40
2023-05-06T17:04:34.245Z,96.60
2023-05-06T17:06:37.159Z,96.40
2023-05-06T17:08:39.907Z,96.90
2023-05-06T17:10:43.282Z,96.60
2023-05-06T17:12:47.443Z,96.90
2023-05-06T17:14:54.372Z,96.80
2023-05-06T17:17:00.128Z,96.90
2023-05-06T17:19:03.091Z,96.80
2023-05-06T17:21:08.934Z,96.90
2023-05-06T17:23:13.653Z,97.10
2023-05-06T17:25:16.581Z,97.40
2023-05-06T17:27:20.793Z,97.70
2023-05-06T17:29:30.097Z,98.00
2023-05-06T17:31:33.062Z,97.90
2023-05-06T17:33:36.610Z,98.20
2023-05-06T17:35:39.697Z,98.60
2023-05-06T17:37:42.727Z,99.10
2023-05-06T17:39:46.212Z,99.40
2023-05-06T17:42:02.597Z,99.80
2023-05-06T17:44:10.271Z,99.80
2023-05-06T17:46:14.542Z,99.80
2023-05-06T17:48:20.357Z,99.80
2023-05-06T17:50:31.311Z,99.90
2023-05-06T17:52:34.766Z,99.70
2023-05-06T17:54:41.437Z,99.70
2023-05-06T17:56:50.569Z,99.80
2023-05-06T17:58:54.328Z,99.90
2023-05-06T18:00:57.297Z,99.90
2023-05-06T18:03:01.541Z,99.90
2023-05-06T18:05:04.680Z,99.90
2023-05-06T18:07:07.386Z,99.90
2023-05-06T18:09:10.610Z,99.90
2023-05-06T18:11:13.717Z,99.90
2023-05-06T18:13:16.789Z,99.90
2023-05-06T18:15:19.817Z,99.90
2023-05-06T18:17:22.608Z,99.90
2023-05-06T18:19:27.332Z,99.90
2023-05-06T18:21:30.388Z,99.90
2023-05-06T18:23:33.351Z,99.90
2023-05-06T18:25:36.034Z,99.90
2023-05-06T18:27:38.839Z,99.90
2023-05-06T18:29:41.971Z,99.90
2023-05-06T18:31:44.777Z,99.90
2023-05-06T18:33:47.563Z,99.90
2023-05-06T18:35:52.084Z,99.90
2023-05-06T18:37:57.825Z,99.90
2023-05-06T18:40:11.037Z,99.90
2023-05-06T18:42:13.972Z,99.90
2023-05-06T18:44:25.203Z,99.90
2023-05-06T18:46:28.287Z,99.90
2023-05-06T18:48:31.935Z,99.90
2023-05-06T18:50:34.708Z,99.90
2023-05-06T18:52:41.387Z,99.90
2023-05-06T18:54:44.595Z,99.90
2023-05-06T18:56:48.210Z,99.90
2023-05-06T18:58:51.111Z,99.90
2023-05-06T19:00:55.310Z,99.90
2023-05-06T19:02:58.638Z,99.90
2023-05-06T19:05:01.476Z,99.90
2023-05-06T19:07:04.415Z,99.90
2023-05-06T19:09:08.992Z,99.90
2023-05-06T19:11:15.379Z,99.90
2023-05-06T19:13:18.202Z,99.90
2023-05-06T19:15:21.163Z,99.90
2023-05-06T19:17:23.991Z,99.90
2023-05-06T19:19:26.998Z,99.90
2023-05-06T19:21:29.852Z,99.90
2023-05-06T19:23:33.093Z,99.90
2023-05-06T19:25:39.163Z,99.90
2023-05-06T19:27:41.967Z,99.90
2023-05-06T19:29:44.817Z,99.90
2023-05-06T19:31:47.622Z,99.90
2023-05-06T19:33:50.701Z,99.90
2023-05-06T19:35:53.665Z,99.90
2023-05-06T19:37:57.316Z,99.90
2023-05-06T19:40:00.065Z,99.90
2023-05-06T19:42:04.259Z,99.90
2023-05-06T19:44:07.041Z,99.90
2023-05-06T19:46:10.221Z,99.90
2023-05-06T19:48:14.561Z,99.90
2023-05-06T19:50:17.344Z,99.90
2023-05-06T19:52:20.229Z,99.90
2023-05-06T19:54:22.999Z,99.90
2023-05-06T19:56:25.899Z,99.90
2023-05-06T19:58:30.808Z,99.90
2023-05-06T20:00:33.689Z,99.90
2023-05-06T20:02:38.908Z,99.90
2023-05-06T20:04:41.789Z,99.90
2023-05-06T20:06:44.616Z,99.90
2023-05-06T20:08:47.575Z,99.90
2023-05-06T20:10:50.551Z,99.90
2023-05-06T20:12:54.830Z,99.90
2023-05-06T20:15:00.677Z,99.90
2023-05-06T20:17:03.581Z,99.90
2023-05-06T20:19:07.693Z,99.90
2023-05-06T20:21:10.424Z,99.90
2023-05-06T20:23:13.172Z,99.90
2023-05-06T20:25:17.394Z,99.90
2023-05-06T20:27:21.153Z,99.90
2023-05-06T20:29:23.964Z,99.90
2023-05-06T20:31:28.625Z,99.90
2023-05-06T20:33:31.458Z,99.90
2023-05-06T20:35:37.872Z,99.90
2023-05-06T20:37:41.240Z,99.90
2023-05-06T20:39:45.209Z,99.90
2023-05-06T20:41:48.012Z,99.90
2023-05-06T20:43:53.173Z,99.90
2023-05-06T20:45:56.240Z,99.90
2023-05-06T20:48:00.354Z,99.90
2023-05-06T20:50:03.222Z,99.90
2023-05-06T20:52:07.794Z,99.90
2023-05-06T20:54:11.035Z,99.90
2023-05-06T20:56:20.426Z,99.90
2023-05-06T20:58:23.425Z,99.90
2023-05-06T21:00:26.330Z,99.90
2023-05-06T21:02:31.516Z,99.90
2023-05-06T21:04:39.126Z,99.90
2023-05-06T21:06:42.034Z,99.90
2023-05-06T21:08:46.143Z,99.90
2023-05-06T21:10:49.008Z,99.90
2023-05-06T21:12:52.045Z,99.90
2023-05-06T21:14:55.185Z,99.90
2023-05-06T21:16:58.004Z,99.90
2023-05-06T21:19:01.150Z,99.90
2023-05-06T21:21:05.776Z,99.90
2023-05-06T21:23:08.838Z,99.90
2023-05-06T21:25:13.050Z,99.90
2023-05-06T21:27:16.453Z,99.90
2023-05-06T21:29:22.347Z,99.90
2023-05-06T21:31:26.432Z,99.90
2023-05-06T21:33:29.366Z,99.90
2023-05-06T21:35:32.190Z,99.90
2023-05-06T21:37:36.525Z,99.90
2023-05-06T21:39:39.498Z,99.90
2023-05-06T21:41:42.271Z,99.90
2023-05-06T21:43:44.992Z,99.90
2023-05-06T21:45:47.919Z,99.90
2023-05-06T21:47:50.849Z,99.90
2023-05-06T21:49:53.647Z,99.90
2023-05-06T21:51:56.584Z,99.90
2023-05-06T21:54:00.975Z,99.90
2023-05-06T21:56:04.003Z,99.90
2023-05-06T21:58:08.396Z,99.90
2023-05-06T22:00:12.687Z,99.90
2023-05-06T22:02:15.955Z,99.90
2023-05-06T22:04:19.941Z,99.90
2023-05-06T22:06:23.273Z,99.90
2023-05-06T22:08:28.860Z,99.90
2023-05-06T22:10:33.048Z,99.90
2023-05-06T22:12:38.008Z,99.90
2023-05-06T22:14:41.821Z,99.90
2023-05-06T22:16:45.659Z,99.90
2023-05-06T22:18:51.935Z,99.90
2023-05-06T22:20:57.592Z,99.90
2023-05-06T22:23:00.756Z,99.90
2023-05-06T22:25:03.638Z,99.90
2023-05-06T22:27:07.883Z,99.90
2023-05-06T22:29:11.109Z,99.90
2023-05-06T22:31:16.979Z,99.90
2023-05-06T22:33:19.857Z,99.90
2023-05-06T22:35:22.594Z,99.90
2023-05-06T22:37:25.402Z,99.90
2023-05-06T22:39:28.206Z,99.90
2023-05-06T22:41:31.360Z,99.90
2023-05-06T22:43:35.581Z,99.90
2023-05-06T22:45:38.426Z,99.90
2023-05-06T22:47:41.366Z,99.90
2023-05-06T22:49:44.279Z,99.90
2023-05-06T22:51:47.176Z,99.90
2023-05-06T22:53:49.904Z,99.90
2023-05-06T22:55:52.678Z,99.90
2023-05-06T22:57:55.769Z,99.90
2023-05-06T22:59:59.886Z,99.90
2023-05-06T23:02:03.075Z,99.90
2023-05-06T23:04:06.228Z,99.90
2023-05-06T23:06:09.070Z,99.90
2023-05-06T23:08:11.947Z,99.90
2023-05-06T23:10:14.695Z,99.90
2023-05-06T23:12:17.479Z,99.90
2023-05-06T23:14:20.360Z,99.90
2023-05-06T23:16:24.645Z,99.90
2023-05-06T23:18:27.457Z,99.90
2023-05-06T23:20:30.260Z,99.90
2023-05-06T23:22:33.013Z,99.90
2023-05-06T23:24:36.363Z,99.90
2023-05-06T23:26:39.251Z,99.90
2023-05-06T23:28:42.069Z,99.90
2023-05-06T23:30:44.857Z,99.90
2023-05-06T23:32:49.247Z,99.90
2023-05-06T23:34:52.416Z,99.90
2023-05-06T23:36:56.332Z,99.90
2023-05-06T23:38:59.121Z,99.90
2023-05-06T23:41:01.836Z,99.90
2023-05-06T23:43:06.928Z,99.90
2023-05-06T23:45:11.657Z,99.90
2023-05-06T23:47:14.610Z,99.90
2023-05-06T23:49:18.674Z,99.90
2023-05-06T23:51:21.574Z,99.90
2023-05-06T23:53:24.772Z,99.90
2023-05-06T23:55:27.921Z,99.90
2023-05-06T23:57:30.799Z,99.90
2023-05-06T23:59:33.930Z,99.90
